Time;durP1;ratioP1;P1;durP2;ratioP2;P2;SDS_P1;SDS_P2;PMS_P1;PMS_P2;Temp;Humidity;BMP_temperature;BMP_pressure;BME280_temperature;BME280_humidity;BME280_pressure;Samples;Min_cycle;Max_cycle;Signal;HPM_P1;HPM_P2
2020/12/12 00:02:20;;;;;;;12.60;6.75;;;2.70;99.90;;;;;;5065760;28;20387;-75
2020/12/12 00:04:46;;;;;;;13.05;7.30;;;2.80;99.90;;;;;;5065853;28;20070;-75
2020/12/12 00:07:12;;;;;;;13.10;7.50;;;2.80;99.90;;;;;;5068223;28;20171;-75
2020/12/12 00:09:38;;;;;;;11.60;7.50;;;2.80;99.90;;;;;;5069040;28;20028;-75
2020/12/12 00:12:05;;;;;;;12.93;8.32;;;2.80;99.90;;;;;;5063877;28;20107;-75
2020/12/12 00:14:31;;;;;;;14.30;8.20;;;2.80;99.90;;;;;;5069441;28;20441;-75
2020/12/12 00:16:57;;;;;;;12.38;7.95;;;2.70;99.90;;;;;;5056248;28;20025;-75
2020/12/12 00:19:23;;;;;;;10.07;7.18;;;2.70;99.90;;;;;;5050273;28;20036;-75
2020/12/12 00:21:55;;;;;;;11.00;7.18;;;2.90;99.90;;;;;;5055136;28;20538;-75
2020/12/12 00:24:21;;;;;;;12.48;8.18;;;2.80;99.90;;;;;;5064764;28;20050;-75
2020/12/12 00:26:47;;;;;;;13.98;7.90;;;2.80;99.90;;;;;;5070253;28;20037;-75
2020/12/12 00:29:14;;;;;;;11.75;6.57;;;2.70;99.90;;;;;;5070922;28;20161;-75
2020/12/12 00:31:41;;;;;;;9.50;6.57;;;2.80;99.90;;;;;;5069051;28;20021;-76
2020/12/12 00:34:07;;;;;;;13.15;6.55;;;2.90;99.90;;;;;;5070970;28;20025;-75
2020/12/12 00:36:42;;;;;;;9.10;6.30;;;2.90;99.90;;;;;;5062710;28;20459;-75
2020/12/12 00:39:08;;;;;;;10.23;6.47;;;2.90;99.90;;;;;;5051701;28;20375;-75
2020/12/12 00:41:39;;;;;;;11.85;7.22;;;2.90;99.90;;;;;;5051149;28;20025;-75
2020/12/12 00:44:05;;;;;;;9.80;6.45;;;2.90;99.90;;;;;;5054966;28;20115;-75
2020/12/12 00:46:32;;;;;;;11.93;7.70;;;2.90;99.90;;;;;;5061717;28;20119;-75
2020/12/12 00:48:58;;;;;;;16.38;9.93;;;2.90;99.90;;;;;;5070317;28;20021;-75
2020/12/12 00:51:24;;;;;;;39.03;21.65;;;2.90;99.90;;;;;;5066309;28;20044;-75
2020/12/12 00:53:49;;;;;;;16.60;9.88;;;2.90;99.90;;;;;;5051464;28;20032;-75
2020/12/12 00:56:15;;;;;;;15.00;9.07;;;2.90;99.90;;;;;;5058027;28;20034;-75
2020/12/12 00:58:42;;;;;;;10.82;8.10;;;2.80;99.90;;;;;;5071224;28;20029;-75
2020/12/12 01:01:08;;;;;;;10.18;7.50;;;2.80;99.90;;;;;;5070499;28;20028;-75
2020/12/12 01:03:34;;;;;;;11.05;7.20;;;2.80;99.90;;;;;;5070673;28;20062;-75
2020/12/12 01:06:00;;;;;;;13.50;7.90;;;2.80;99.90;;;;;;5066567;28;20479;-75
2020/12/12 01:08:26;;;;;;;12.50;8.68;;;2.90;99.90;;;;;;5070669;28;20040;-75
2020/12/12 01:10:51;;;;;;;11.57;7.05;;;2.90;99.90;;;;;;5064710;28;20756;-75
2020/12/12 01:13:17;;;;;;;11.27;6.93;;;2.80;99.90;;;;;;5057175;28;20643;-75
2020/12/12 01:15:43;;;;;;;10.63;7.35;;;2.80;99.90;;;;;;5052269;28;20032;-75
2020/12/12 01:18:09;;;;;;;12.27;8.20;;;2.80;99.90;;;;;;5070903;28;20498;-75
2020/12/12 01:20:35;;;;;;;10.10;6.47;;;2.80;99.90;;;;;;5065423;28;20021;-75
2020/12/12 01:23:01;;;;;;;9.80;6.28;;;2.80;99.90;;;;;;5062042;28;20029;-75
2020/12/12 01:25:26;;;;;;;14.30;6.60;;;2.80;99.90;;;;;;5050841;28;20479;-75
2020/12/12 01:27:52;;;;;;;10.45;6.93;;;2.80;99.90;;;;;;5068891;28;20051;-75
2020/12/12 01:30:18;;;;;;;12.18;6.80;;;2.80;99.90;;;;;;5070594;28;20085;-75
2020/12/12 01:32:44;;;;;;;12.80;7.57;;;2.80;99.90;;;;;;5066678;28;20079;-76
2020/12/12 01:35:10;;;;;;;9.63;6.20;;;2.80;99.90;;;;;;5051066;28;20025;-76
2020/12/12 01:37:35;;;;;;;11.05;7.30;;;2.80;99.90;;;;;;5061640;28;20364;-75
2020/12/12 01:40:01;;;;;;;9.18;6.20;;;2.80;99.90;;;;;;5063976;28;20115;-75
2020/12/12 01:42:27;;;;;;;8.60;5.78;;;2.70;99.90;;;;;;5074066;28;20051;-75
2020/12/12 01:44:56;;;;;;;8.30;5.65;;;2.70;99.90;;;;;;5073949;28;20043;-75
2020/12/12 01:47:23;;;;;;;13.05;7.68;;;2.60;99.90;;;;;;5061816;28;20086;-75
2020/12/12 01:49:50;;;;;;;12.07;7.32;;;2.70;99.90;;;;;;5053191;28;20037;-75
2020/12/12 01:52:17;;;;;;;9.05;6.28;;;2.70;99.90;;;;;;5065742;28;20497;-76
2020/12/12 01:54:49;;;;;;;11.68;6.95;;;2.80;99.90;;;;;;5073501;28;20029;-75
2020/12/12 01:57:19;;;;;;;9.45;6.82;;;2.80;99.90;;;;;;5071274;28;20075;-75
2020/12/12 01:59:45;;;;;;;9.80;5.95;;;2.80;99.90;;;;;;5063041;28;20408;-75
2020/12/12 02:02:11;;;;;;;9.60;6.50;;;2.80;99.90;;;;;;5058452;28;20021;-75
2020/12/12 02:04:46;;;;;;;9.25;6.07;;;2.70;99.90;;;;;;5060924;28;20020;-75
2020/12/12 02:07:13;;;;;;;10.85;6.25;;;2.80;99.90;;;;;;5071917;28;20457;-75
2020/12/12 02:09:39;;;;;;;9.98;6.05;;;2.80;99.90;;;;;;5068669;28;20031;-75
2020/12/12 02:12:04;;;;;;;9.57;6.50;;;2.80;99.90;;;;;;5054809;28;20497;-75
2020/12/12 02:14:32;;;;;;;10.55;6.88;;;2.80;99.90;;;;;;5059180;28;20132;-76
2020/12/12 02:17:01;;;;;;;12.15;7.28;;;2.90;99.90;;;;;;5072117;28;20033;-75
2020/12/12 02:19:27;;;;;;;10.80;7.03;;;2.80;99.90;;;;;;5056781;28;20471;-76
2020/12/12 02:21:54;;;;;;;9.77;6.35;;;2.70;99.90;;;;;;5054072;28;20036;-75
2020/12/12 02:24:20;;;;;;;12.68;7.45;;;2.70;99.90;;;;;;5065817;28;20395;-75
2020/12/12 02:26:46;;;;;;;9.13;5.80;;;2.60;99.90;;;;;;5073778;28;20050;-75
2020/12/12 02:29:12;;;;;;;10.00;6.82;;;2.60;99.90;;;;;;5069950;28;20060;-75
2020/12/12 02:31:39;;;;;;;11.27;6.40;;;2.70;99.90;;;;;;5053833;28;20052;-75
2020/12/12 02:34:05;;;;;;;12.00;6.20;;;2.70;99.90;;;;;;5063745;28;20104;-76
2020/12/12 02:36:38;;;;;;;13.90;8.07;;;2.70;99.90;;;;;;5057835;28;20025;-75
2020/12/12 02:39:07;;;;;;;11.25;7.28;;;2.80;99.90;;;;;;5073084;28;20021;-77
2020/12/12 02:41:33;;;;;;;10.25;7.45;;;2.80;99.90;;;;;;5054679;28;20062;-75
2020/12/12 02:43:58;;;;;;;12.23;7.18;;;2.70;99.90;;;;;;5061864;28;20020;-75
2020/12/12 02:46:24;;;;;;;11.15;6.53;;;2.70;99.90;;;;;;5060198;28;20021;-75
2020/12/12 02:48:50;;;;;;;9.65;6.90;;;2.70;99.90;;;;;;5070807;28;20095;-75
2020/12/12 02:51:16;;;;;;;11.63;7.28;;;2.70;99.90;;;;;;5063273;28;20033;-75
2020/12/12 02:53:45;;;;;;;12.63;7.95;;;2.80;99.90;;;;;;5053821;28;20021;-75
2020/12/12 02:56:18;;;;;;;10.52;6.80;;;2.70;99.90;;;;;;5061671;28;20029;-75
2020/12/12 02:58:44;;;;;;;13.70;7.30;;;2.70;99.90;;;;;;5072307;28;20028;-75
2020/12/12 03:01:10;;;;;;;11.13;7.93;;;2.60;99.90;;;;;;5067936;28;20498;-75
2020/12/12 03:03:36;;;;;;;11.38;7.07;;;2.70;99.90;;;;;;5055909;28;20422;-75
2020/12/12 03:06:02;;;;;;;12.27;7.63;;;2.80;99.90;;;;;;5065648;28;20025;-75
2020/12/12 03:08:29;;;;;;;11.80;7.15;;;2.80;99.90;;;;;;5072123;28;20131;-75
2020/12/12 03:10:55;;;;;;;10.52;7.25;;;2.70;99.90;;;;;;5073477;28;20029;-75
2020/12/12 03:13:21;;;;;;;9.88;6.63;;;2.80;99.90;;;;;;5072644;28;20024;-75
2020/12/12 03:15:47;;;;;;;9.75;6.75;;;2.80;99.90;;;;;;5059193;28;20056;-75
2020/12/12 03:18:13;;;;;;;10.77;7.63;;;2.80;99.90;;;;;;5072096;28;20055;-75
2020/12/12 03:20:38;;;;;;;12.05;6.72;;;2.80;99.90;;;;;;5071622;28;20471;-75
2020/12/12 03:23:04;;;;;;;11.30;6.63;;;2.80;99.90;;;;;;5053010;28;20418;-75
2020/12/12 03:25:30;;;;;;;11.35;6.32;;;2.90;99.90;;;;;;5069008;28;20029;-75
2020/12/12 03:27:56;;;;;;;12.93;7.38;;;2.90;99.90;;;;;;5058027;28;20039;-76
2020/12/12 03:30:22;;;;;;;10.70;6.40;;;3.00;99.90;;;;;;5069592;28;20032;-75
2020/12/12 03:32:48;;;;;;;10.02;6.55;;;2.90;99.90;;;;;;5052790;28;20107;-75
2020/12/12 03:35:14;;;;;;;9.70;6.50;;;2.80;99.90;;;;;;5065666;28;20104;-75
2020/12/12 03:37:40;;;;;;;10.30;7.03;;;2.70;99.90;;;;;;5063350;28;20029;-75
2020/12/12 03:40:05;;;;;;;8.93;5.63;;;2.80;99.90;;;;;;5061978;28;20547;-75
2020/12/12 03:42:31;;;;;;;12.05;6.82;;;2.80;99.90;;;;;;5052525;28;20029;-76
2020/12/12 03:44:57;;;;;;;10.27;6.90;;;2.90;99.90;;;;;;5061767;28;20098;-75
2020/12/12 03:47:23;;;;;;;11.15;7.18;;;2.90;99.90;;;;;;5058427;28;20028;-75
2020/12/12 03:49:48;;;;;;;9.88;6.68;;;2.90;99.90;;;;;;5071726;28;20360;-75
2020/12/12 03:52:17;;;;;;;9.20;5.60;;;2.90;99.90;;;;;;5071713;28;20548;-75
2020/12/12 03:54:42;;;;;;;11.60;7.07;;;2.90;99.90;;;;;;5071196;28;20025;-75
2020/12/12 03:57:08;;;;;;;10.73;6.35;;;2.90;99.90;;;;;;5071959;28;20064;-75
2020/12/12 03:59:34;;;;;;;10.70;6.40;;;2.80;99.90;;;;;;5069148;28;20028;-75
2020/12/12 04:02:00;;;;;;;9.70;6.68;;;2.80;99.90;;;;;;5068564;28;20036;-75
2020/12/12 04:04:26;;;;;;;10.27;6.57;;;2.80;99.90;;;;;;5060646;28;20514;-76
2020/12/12 04:06:51;;;;;;;11.90;6.78;;;2.80;99.90;;;;;;5043780;28;20029;-76
2020/12/12 04:09:17;;;;;;;11.57;7.13;;;2.80;99.90;;;;;;5057592;28;20035;-76
2020/12/12 04:11:43;;;;;;;10.35;6.80;;;2.80;99.90;;;;;;5065008;28;20152;-77
2020/12/12 04:14:09;;;;;;;9.75;6.18;;;2.80;99.90;;;;;;5064707;28;20025;-76
2020/12/12 04:16:34;;;;;;;10.02;6.80;;;2.90;99.90;;;;;;5063153;28;20025;-76
2020/12/12 04:19:00;;;;;;;11.70;6.93;;;2.90;99.90;;;;;;5056122;28;20112;-76
2020/12/12 04:21:26;;;;;;;13.00;7.00;;;2.90;99.90;;;;;;5062802;28;20043;-76
2020/12/12 04:23:52;;;;;;;11.45;7.43;;;2.80;99.90;;;;;;5065055;28;20032;-76
2020/12/12 04:26:18;;;;;;;12.40;6.47;;;2.80;99.90;;;;;;5064308;28;20032;-76
2020/12/12 04:28:44;;;;;;;10.70;6.50;;;2.80;99.90;;;;;;5061135;28;20617;-77
2020/12/12 04:31:09;;;;;;;10.93;6.25;;;2.80;99.90;;;;;;5058896;28;20036;-76
2020/12/12 04:33:36;;;;;;;9.82;6.22;;;2.80;99.90;;;;;;5065042;28;20111;-76
2020/12/12 04:36:05;;;;;;;12.05;7.20;;;2.80;99.90;;;;;;5052357;28;20025;-76
2020/12/12 04:38:32;;;;;;;10.70;7.03;;;2.90;99.90;;;;;;5045086;28;20479;-76
2020/12/12 04:40:58;;;;;;;9.77;7.13;;;2.80;99.90;;;;;;5055908;28;20035;-77
2020/12/12 04:43:25;;;;;;;14.00;8.85;;;2.80;99.90;;;;;;5065122;28;20034;-77
2020/12/12 04:45:52;;;;;;;12.57;7.18;;;2.80;99.90;;;;;;5064543;28;20031;-76
2020/12/12 04:48:18;;;;;;;12.48;6.97;;;2.80;99.90;;;;;;5064265;28;20693;-76
2020/12/12 04:50:44;;;;;;;12.40;7.78;;;2.80;99.90;;;;;;5053511;28;20029;-76
2020/12/12 04:53:19;;;;;;;11.85;7.40;;;2.80;99.90;;;;;;5064001;28;20414;-76
2020/12/12 04:55:52;;;;;;;9.70;6.28;;;2.70;99.90;;;;;;5055992;28;20434;-76
2020/12/12 04:58:25;;;;;;;10.35;7.15;;;2.70;99.90;;;;;;5044699;28;20060;-76
2020/12/12 05:00:54;;;;;;;13.70;6.90;;;2.70;99.90;;;;;;5062335;28;20033;-76
2020/12/12 05:03:21;;;;;;;14.07;7.13;;;2.60;99.90;;;;;;5061744;28;20039;-76
2020/12/12 05:05:47;;;;;;;10.30;7.10;;;2.60;99.90;;;;;;5054983;28;20443;-76
2020/12/12 05:08:14;;;;;;;14.70;7.97;;;2.50;99.90;;;;;;5044665;28;20832;-76
2020/12/12 05:10:41;;;;;;;13.25;8.15;;;2.50;99.90;;;;;;5045244;28;20059;-76
2020/12/12 05:13:22;;;;;;;12.13;7.20;;;2.60;99.90;;;;;;5057561;28;20032;-76
2020/12/12 05:15:50;;;;;;;10.00;7.47;;;2.60;99.90;;;;;;5057518;28;20056;-76
2020/12/12 05:18:16;;;;;;;12.55;7.60;;;2.60;99.90;;;;;;5048776;28;20021;-77
2020/12/12 05:20:42;;;;;;;12.02;7.53;;;2.70;99.90;;;;;;5050452;28;20033;-76
2020/12/12 05:23:16;;;;;;;10.93;7.20;;;2.70;99.90;;;;;;5058850;28;20550;-77
2020/12/12 05:25:47;;;;;;;11.95;6.55;;;2.90;99.90;;;;;;5062907;28;20029;-76
2020/12/12 05:28:15;;;;;;;10.27;6.75;;;2.90;99.90;;;;;;5048494;28;20100;-76
2020/12/12 05:30:42;;;;;;;10.32;6.15;;;2.90;99.90;;;;;;5051091;28;20061;-76
2020/12/12 05:33:13;;;;;;;12.43;7.25;;;2.80;99.90;;;;;;5055582;28;20101;-76
2020/12/12 05:35:40;;;;;;;10.25;6.53;;;2.90;99.90;;;;;;5063833;28;20052;-76
2020/12/12 05:38:09;;;;;;;12.55;6.30;;;2.80;99.90;;;;;;5048441;28;20064;-77
2020/12/12 05:40:36;;;;;;;10.32;6.75;;;2.80;99.90;;;;;;5051063;28;20017;-76
2020/12/12 05:43:07;;;;;;;10.88;6.93;;;2.90;99.90;;;;;;5083386;28;20025;-77
2020/12/12 05:45:34;;;;;;;11.45;6.53;;;2.90;99.90;;;;;;5064126;28;20025;-76
2020/12/12 05:48:00;;;;;;;11.95;7.32;;;2.90;99.90;;;;;;5048681;28;20033;-77
2020/12/12 05:50:26;;;;;;;13.63;7.72;;;2.90;99.90;;;;;;5049527;28;20120;-77
2020/12/12 05:52:54;;;;;;;10.43;6.57;;;2.90;99.90;;;;;;5067783;28;20031;-76
2020/12/12 05:55:34;;;;;;;9.90;5.95;;;2.90;99.90;;;;;;5067506;28;20511;-76
2020/12/12 05:58:00;;;;;;;10.00;6.25;;;3.00;99.90;;;;;;5065475;28;20092;-77
2020/12/12 06:00:28;;;;;;;10.02;6.82;;;2.90;99.90;;;;;;5067210;28;20070;-78
2020/12/12 06:02:55;;;;;;;8.93;5.95;;;3.00;99.90;;;;;;5064361;28;20056;-75
2020/12/12 06:05:29;;;;;;;14.23;7.68;;;3.00;99.90;;;;;;5055535;28;20081;-77
2020/12/12 06:08:03;;;;;;;10.70;6.40;;;3.00;99.90;;;;;;5047664;28;20033;-76
2020/12/12 06:10:34;;;;;;;10.80;6.45;;;3.00;99.90;;;;;;5066393;28;20037;-77
2020/12/12 06:13:05;;;;;;;11.25;7.20;;;3.00;99.90;;;;;;5060209;28;20038;-76
2020/12/12 06:15:37;;;;;;;9.95;6.50;;;2.90;99.90;;;;;;5067447;28;20111;-76
2020/12/12 06:18:20;;;;;;;10.90;6.85;;;3.00;99.90;;;;;;5047510;28;20044;-76
2020/12/12 06:20:51;;;;;;;10.73;7.20;;;3.00;99.90;;;;;;5046344;28;20593;-76
2020/12/12 06:23:17;;;;;;;11.23;6.57;;;3.00;99.90;;;;;;5065415;28;20031;-78
2020/12/12 06:25:43;;;;;;;11.32;7.20;;;2.90;99.90;;;;;;5067146;28;20167;-76
2020/12/12 06:28:15;;;;;;;9.38;6.10;;;2.90;99.90;;;;;;5065889;28;20104;-76
2020/12/12 06:30:42;;;;;;;12.63;6.88;;;3.00;99.90;;;;;;5067014;28;20020;-76
2020/12/12 06:33:08;;;;;;;12.05;6.63;;;2.90;99.90;;;;;;5056402;28;20115;-77
2020/12/12 06:35:35;;;;;;;10.07;6.20;;;2.90;99.90;;;;;;5066244;28;20111;-78
2020/12/12 06:38:26;;;;;;;9.52;6.00;;;3.00;99.90;;;;;;5047675;28;20028;-76
2020/12/12 06:40:58;;;;;;;10.15;6.22;;;3.10;99.90;;;;;;5048579;28;20044;-75
2020/12/12 06:43:27;;;;;;;12.18;6.35;;;2.90;99.90;;;;;;5061635;28;20024;-76
2020/12/12 06:45:53;;;;;;;10.60;6.47;;;2.90;99.90;;;;;;5049064;28;20071;-75
2020/12/12 06:48:24;;;;;;;9.85;6.25;;;2.90;99.90;;;;;;5060217;28;20076;-76
2020/12/12 06:50:50;;;;;;;9.52;6.13;;;2.90;99.90;;;;;;5046527;28;20024;-76
2020/12/12 06:53:21;;;;;;;10.63;6.45;;;2.90;99.90;;;;;;5050471;28;20651;-76
2020/12/12 06:56:09;;;;;;;10.85;6.05;;;3.00;99.90;;;;;;5065065;28;20028;-76
2020/12/12 06:58:36;;;;;;;9.23;5.72;;;3.00;99.90;;;;;;5046808;28;20712;-76
2020/12/12 07:01:28;;;;;;;9.27;6.03;;;3.00;99.90;;;;;;5049015;28;20103;-76
2020/12/12 07:04:04;;;;;;;9.90;6.05;;;2.90;99.90;;;;;;5063258;28;20901;-76
2020/12/12 07:06:33;;;;;;;9.60;6.05;;;3.00;99.90;;;;;;5061510;28;20044;-77
2020/12/12 07:09:01;;;;;;;12.55;6.20;;;3.00;99.90;;;;;;5066033;28;20062;-76
2020/12/12 07:11:27;;;;;;;10.30;6.07;;;3.00;99.90;;;;;;5052015;28;20033;-76
2020/12/12 07:13:54;;;;;;;11.43;6.90;;;2.90;99.90;;;;;;5048976;28;20025;-76
2020/12/12 07:16:21;;;;;;;11.00;7.15;;;3.00;99.90;;;;;;5059737;28;20032;-76
2020/12/12 07:18:49;;;;;;;13.15;6.65;;;3.00;99.90;;;;;;5053132;28;20079;-78
2020/12/12 07:21:15;;;;;;;14.38;6.40;;;3.00;99.90;;;;;;5057367;28;20543;-76
2020/12/12 07:23:40;;;;;;;10.10;5.38;;;3.00;99.90;;;;;;5066209;28;20029;-76
2020/12/12 07:26:06;;;;;;;11.60;5.82;;;3.00;99.90;;;;;;5056346;28;20604;-78
2020/12/12 07:28:33;;;;;;;12.80;6.30;;;3.00;99.90;;;;;;5054632;28;20040;-76
2020/12/12 07:31:01;;;;;;;10.85;6.88;;;3.10;99.90;;;;;;5057579;28;20091;-76
2020/12/12 07:33:28;;;;;;;13.38;7.45;;;3.10;99.90;;;;;;5060379;28;20495;-79
2020/12/12 07:35:54;;;;;;;10.60;6.40;;;3.10;99.90;;;;;;5070766;28;20033;-77
2020/12/12 07:38:20;;;;;;;9.70;6.28;;;3.10;99.90;;;;;;5061007;28;20032;-76
2020/12/12 07:40:46;;;;;;;9.98;5.95;;;3.20;99.90;;;;;;5048462;28;20032;-79
2020/12/12 07:43:12;;;;;;;10.05;5.80;;;3.20;99.90;;;;;;5047260;28;20426;-77
2020/12/12 07:48:04;;;;;;;9.85;5.43;;;3.10;99.90;;;;;;5065893;28;20489;-77
2020/12/12 07:50:31;;;;;;;9.73;6.13;;;3.10;99.90;;;;;;5065572;28;20025;-77
2020/12/12 07:53:05;;;;;;;9.02;5.82;;;3.20;99.90;;;;;;5066362;28;20107;-77
2020/12/12 07:55:31;;;;;;;9.95;6.47;;;3.30;99.90;;;;;;5063631;28;20025;-77
2020/12/12 07:57:58;;;;;;;13.18;6.53;;;3.30;99.90;;;;;;5045792;28;20049;-77
2020/12/12 08:00:24;;;;;;;14.73;9.48;;;3.30;99.90;;;;;;5061211;28;20471;-78
2020/12/12 08:02:57;;;;;;;11.70;7.55;;;3.30;99.90;;;;;;5065352;28;20067;-77
2020/12/12 08:05:23;;;;;;;11.23;7.03;;;3.50;99.90;;;;;;5065038;28;20379;-77
2020/12/12 08:07:49;;;;;;;11.05;6.03;;;3.60;99.90;;;;;;5064931;28;20040;-77
2020/12/12 08:10:15;;;;;;;9.32;6.40;;;3.50;99.90;;;;;;5064584;28;20040;-77
2020/12/12 08:12:43;;;;;;;11.57;6.70;;;3.60;99.90;;;;;;5065021;28;20029;-77
2020/12/12 08:15:15;;;;;;;8.35;5.60;;;3.70;99.90;;;;;;5064849;28;20028;-77
2020/12/12 08:17:41;;;;;;;9.43;5.30;;;3.60;99.90;;;;;;5064973;28;20036;-77
2020/12/12 08:20:13;;;;;;;8.20;5.53;;;3.70;99.90;;;;;;5063244;28;20677;-77
2020/12/12 08:22:40;;;;;;;11.55;7.00;;;3.70;99.90;;;;;;5065666;28;20032;-76
2020/12/12 08:25:07;;;;;;;8.77;4.88;;;3.80;99.90;;;;;;5065120;28;20981;-77
2020/12/12 08:27:34;;;;;;;8.30;5.13;;;3.80;99.90;;;;;;5064685;28;20599;-79
2020/12/12 08:30:00;;;;;;;7.93;5.30;;;3.80;99.90;;;;;;5064764;28;20111;-80
2020/12/12 08:32:38;;;;;;;8.10;5.75;;;3.80;99.90;;;;;;5065156;28;20029;-77
2020/12/12 08:35:24;;;;;;;7.80;4.93;;;3.80;99.90;;;;;;5060984;28;20039;-77
2020/12/12 08:38:04;;;;;;;10.55;5.63;;;3.90;99.90;;;;;;5060950;28;20028;-77
2020/12/12 08:40:52;;;;;;;8.10;5.25;;;3.90;99.90;;;;;;5057526;28;20107;-77
2020/12/12 08:43:17;;;;;;;12.55;8.30;;;3.80;99.90;;;;;;5057963;28;20104;-77
2020/12/12 08:45:54;;;;;;;14.40;8.70;;;3.90;99.90;;;;;;5060101;28;20119;-76
2020/12/12 08:48:29;;;;;;;10.93;5.43;;;4.00;99.90;;;;;;5062710;28;20116;-76
2020/12/12 08:50:56;;;;;;;14.02;8.02;;;3.80;99.90;;;;;;5051800;28;20032;-75
2020/12/12 08:53:43;;;;;;;8.27;4.35;;;3.80;99.90;;;;;;5042965;28;20035;-77
2020/12/12 08:56:10;;;;;;;10.10;7.10;;;3.80;99.90;;;;;;5039515;28;20025;-76
2020/12/12 08:59:02;;;;;;;10.38;6.47;;;3.90;99.90;;;;;;5039404;28;20032;-76
2020/12/12 09:01:28;;;;;;;8.23;4.47;;;4.00;99.90;;;;;;5043403;28;20029;-77
2020/12/12 09:04:09;;;;;;;8.13;4.50;;;3.90;99.90;;;;;;5047924;28;20032;-77
2020/12/12 09:06:48;;;;;;;7.70;4.00;;;3.80;99.90;;;;;;5044370;28;20103;-77
2020/12/12 09:09:27;;;;;;;10.35;4.97;;;3.80;99.90;;;;;;5042097;28;20032;-76
2020/12/12 09:12:00;;;;;;;7.80;4.10;;;3.80;99.90;;;;;;5042352;28;20056;-77
2020/12/12 09:14:29;;;;;;;9.15;5.47;;;3.90;99.90;;;;;;5046256;28;20061;-76
2020/12/12 09:17:02;;;;;;;8.82;4.85;;;4.00;99.90;;;;;;5043443;28;20115;-76
2020/12/12 09:19:28;;;;;;;6.63;4.47;;;4.00;99.90;;;;;;5043160;28;20138;-77
2020/12/12 09:21:55;;;;;;;8.45;4.63;;;4.00;99.90;;;;;;5040536;28;20040;-76
2020/12/12 09:24:22;;;;;;;6.97;4.38;;;3.90;99.90;;;;;;5047955;28;20048;-78
2020/12/12 09:26:50;;;;;;;7.90;5.28;;;4.00;99.90;;;;;;5061870;28;20493;-78
2020/12/12 09:29:16;;;;;;;8.55;5.03;;;4.10;99.90;;;;;;5061055;28;20040;-76
2020/12/12 09:31:42;;;;;;;9.52;5.50;;;4.10;99.90;;;;;;5044276;28;20126;-78
2020/12/12 09:34:08;;;;;;;10.90;6.00;;;4.10;99.90;;;;;;5039584;28;20536;-78
2020/12/12 09:36:34;;;;;;;8.07;4.95;;;4.20;99.90;;;;;;5048985;28;20547;-76
2020/12/12 09:39:00;;;;;;;11.73;7.25;;;4.20;99.90;;;;;;5039894;28;20063;-76
2020/12/12 09:41:25;;;;;;;9.98;6.03;;;4.30;99.90;;;;;;5038522;28;20482;-76
2020/12/12 09:43:51;;;;;;;16.52;10.13;;;4.40;99.90;;;;;;5039307;28;22050;-75
2020/12/12 09:46:18;;;;;;;15.93;10.00;;;4.50;99.90;;;;;;5043956;28;20029;-75
2020/12/12 09:48:46;;;;;;;8.85;5.00;;;4.30;99.90;;;;;;5038019;28;20028;-74
2020/12/12 09:51:14;;;;;;;9.23;4.70;;;4.40;99.90;;;;;;5038818;28;20120;-76
2020/12/12 09:53:40;;;;;;;8.13;5.10;;;4.40;99.90;;;;;;5040333;28;20025;-75
2020/12/12 09:56:06;;;;;;;7.18;4.90;;;4.40;99.90;;;;;;5041107;28;20098;-76
2020/12/12 09:58:32;;;;;;;9.25;5.78;;;4.40;99.90;;;;;;5041470;28;20523;-73
2020/12/12 10:00:58;;;;;;;8.48;5.10;;;4.40;99.90;;;;;;5038930;28;20037;-76
2020/12/12 10:03:24;;;;;;;8.10;5.18;;;4.50;99.90;;;;;;5040939;28;20063;-75
2020/12/12 10:05:50;;;;;;;8.80;5.35;;;4.60;99.90;;;;;;5041186;28;20036;-73
2020/12/12 10:08:16;;;;;;;8.55;5.05;;;4.60;99.90;;;;;;5045499;28;20087;-73
2020/12/12 10:10:42;;;;;;;7.97;4.72;;;4.60;99.90;;;;;;5041095;28;20021;-74
2020/12/12 10:13:08;;;;;;;6.75;4.53;;;4.50;99.90;;;;;;5041250;28;20337;-72
2020/12/12 10:15:34;;;;;;;10.40;5.13;;;4.70;99.90;;;;;;5040148;28;20036;-74
2020/12/12 10:17:59;;;;;;;8.25;5.07;;;4.80;99.90;;;;;;5047624;28;20060;-72
2020/12/12 10:20:25;;;;;;;7.40;4.43;;;4.70;99.90;;;;;;5041636;28;20398;-72
2020/12/12 10:22:51;;;;;;;7.22;4.82;;;4.70;99.90;;;;;;5044966;28;20546;-72
2020/12/12 10:25:18;;;;;;;7.85;4.53;;;4.70;99.90;;;;;;5039557;28;20029;-72
2020/12/12 10:27:44;;;;;;;8.43;5.35;;;4.80;99.90;;;;;;5042729;28;20367;-72
2020/12/12 10:30:12;;;;;;;8.90;5.45;;;4.80;99.90;;;;;;5044490;28;20048;-72
2020/12/12 10:32:39;;;;;;;11.13;6.78;;;4.80;99.90;;;;;;5048538;28;20481;-72
2020/12/12 10:35:07;;;;;;;10.52;5.43;;;4.90;99.90;;;;;;5052924;28;20048;-72
2020/12/12 10:37:33;;;;;;;6.65;4.47;;;4.90;99.90;;;;;;5045312;28;20028;-73
2020/12/12 10:42:25;;;;;;;11.55;6.65;;;5.20;99.90;;;;;;5040770;28;20075;-72
2020/12/12 10:44:50;;;;;;;13.98;8.48;;;5.30;99.90;;;;;;5039797;28;20020;-72
2020/12/12 10:47:16;;;;;;;11.30;5.97;;;5.30;99.90;;;;;;5045728;28;20044;-72
2020/12/12 10:49:42;;;;;;;9.45;5.55;;;5.20;99.90;;;;;;5041579;28;20082;-72
2020/12/12 10:52:07;;;;;;;9.02;5.10;;;5.00;99.90;;;;;;5038311;28;20112;-73
2020/12/12 10:54:33;;;;;;;6.03;4.20;;;5.10;99.90;;;;;;5040657;28;20043;-73
2020/12/12 10:56:59;;;;;;;9.43;5.90;;;5.40;99.90;;;;;;5045574;28;20045;-74
2020/12/12 10:59:25;;;;;;;9.80;6.03;;;5.40;99.90;;;;;;5041391;28;20480;-74
2020/12/12 11:01:52;;;;;;;9.35;5.45;;;5.50;99.90;;;;;;5045279;28;20927;-77
2020/12/12 11:04:18;;;;;;;7.10;5.00;;;5.50;99.90;;;;;;5040536;28;21005;-78
2020/12/12 11:06:44;;;;;;;8.05;5.07;;;5.50;99.90;;;;;;5041570;28;20041;-78
2020/12/12 11:09:10;;;;;;;8.02;5.05;;;5.50;99.90;;;;;;5044859;28;20127;-77
2020/12/12 11:11:39;;;;;;;8.98;5.05;;;5.50;99.90;;;;;;5048517;28;20493;-75
2020/12/12 11:14:06;;;;;;;8.10;5.25;;;5.40;99.90;;;;;;5043559;28;20059;-76
2020/12/12 11:16:32;;;;;;;7.85;5.50;;;5.40;99.90;;;;;;5040657;28;21211;-76
2020/12/12 11:18:58;;;;;;;10.20;5.55;;;5.50;99.90;;;;;;5042858;28;20028;-77
2020/12/12 11:21:24;;;;;;;8.45;4.68;;;5.60;99.90;;;;;;5041262;28;20025;-75
2020/12/12 11:23:50;;;;;;;8.80;4.75;;;5.50;99.90;;;;;;5046526;28;20035;-72
2020/12/12 11:26:17;;;;;;;9.13;5.88;;;5.50;99.90;;;;;;5040330;28;20037;-76
2020/12/12 11:28:45;;;;;;;9.13;5.40;;;5.40;99.90;;;;;;5035081;28;20048;-76
2020/12/12 11:31:28;;;;;;;8.85;4.90;;;5.40;99.90;;;;;;5046822;28;20034;-77
2020/12/12 11:34:01;;;;;;;11.32;5.38;;;5.40;99.90;;;;;;5041984;28;20052;-76
2020/12/12 11:47:13;;;;;;;9.50;5.38;;;5.60;99.90;;;;;;5040098;28;20076;-76
2020/12/12 11:49:40;;;;;;;6.88;4.18;;;5.50;99.90;;;;;;5040293;28;20135;-70
2020/12/12 11:52:06;;;;;;;10.27;4.97;;;5.50;99.90;;;;;;5041224;28;20070;-70
2020/12/12 11:54:32;;;;;;;8.52;4.30;;;5.60;99.90;;;;;;5039519;28;21008;-71
2020/12/12 11:56:57;;;;;;;7.78;4.95;;;5.50;99.90;;;;;;5046259;28;20098;-69
2020/12/12 11:59:24;;;;;;;7.25;4.63;;;5.50;99.90;;;;;;5039855;28;20032;-69
2020/12/12 12:01:50;;;;;;;6.13;3.90;;;5.50;99.90;;;;;;5041959;28;20436;-69
2020/12/12 12:04:15;;;;;;;8.18;4.28;;;5.50;99.90;;;;;;5043569;28;20050;-73
2020/12/12 12:06:41;;;;;;;6.22;4.13;;;5.70;99.90;;;;;;5061504;28;20021;-69
2020/12/12 12:11:34;;;;;;;6.82;4.20;;;5.80;99.90;;;;;;5040858;28;20070;-71
2020/12/12 12:14:01;;;;;;;7.50;4.05;;;5.70;99.90;;;;;;5040003;28;20040;-72
2020/12/12 12:16:28;;;;;;;8.65;4.40;;;5.70;99.50;;;;;;5042636;28;20753;-71
2020/12/12 12:18:54;;;;;;;7.10;4.20;;;5.50;99.90;;;;;;5042258;28;20060;-71
2020/12/12 12:21:21;;;;;;;9.25;4.53;;;5.50;99.10;;;;;;5039582;28;20020;-70
2020/12/12 12:23:47;;;;;;;7.07;4.40;;;5.40;98.80;;;;;;5040215;28;20028;-70
2020/12/12 12:26:16;;;;;;;6.45;4.38;;;5.40;99.60;;;;;;5038340;28;20036;-70
2020/12/12 12:28:42;;;;;;;7.47;4.35;;;5.60;99.60;;;;;;5043182;28;20724;-69
2020/12/12 12:31:08;;;;;;;7.45;4.10;;;5.60;99.90;;;;;;5044317;28;20125;-70
2020/12/12 12:33:33;;;;;;;7.68;4.32;;;5.60;99.70;;;;;;5038631;28;20446;-70
2020/12/12 12:35:59;;;;;;;7.20;5.03;;;5.60;99.90;;;;;;5049979;28;20104;-70
2020/12/12 12:38:25;;;;;;;6.50;4.07;;;5.70;99.90;;;;;;5062994;28;20051;-69
2020/12/12 12:40:50;;;;;;;7.65;4.82;;;5.70;99.60;;;;;;5077585;28;20118;-70
2020/12/12 12:43:16;;;;;;;7.65;5.10;;;5.80;99.80;;;;;;5058458;28;20090;-70
2020/12/12 12:45:42;;;;;;;6.88;4.20;;;5.80;99.80;;;;;;5038657;28;20036;-70
2020/12/12 12:48:08;;;;;;;7.38;4.32;;;5.80;99.90;;;;;;5041077;28;20420;-70
2020/12/12 12:50:35;;;;;;;10.32;4.70;;;5.80;99.90;;;;;;5040063;28;20161;-71
2020/12/12 12:53:06;;;;;;;7.95;4.35;;;5.80;99.90;;;;;;5039030;28;20081;-71
2020/12/12 12:55:32;;;;;;;8.40;4.80;;;5.70;99.90;;;;;;5040023;28;20028;-71
2020/12/12 12:57:58;;;;;;;8.73;4.85;;;5.70;99.90;;;;;;5047849;28;20707;-69
2020/12/12 13:00:28;;;;;;;8.52;4.70;;;5.60;99.90;;;;;;5039245;28;20375;-70
2020/12/12 13:02:54;;;;;;;8.20;4.65;;;5.60;99.90;;;;;;5039033;28;20119;-69
2020/12/12 13:05:21;;;;;;;8.18;4.85;;;5.60;99.90;;;;;;5039421;28;20040;-70
2020/12/12 13:07:47;;;;;;;9.35;4.53;;;5.60;99.90;;;;;;5039867;28;20048;-70
2020/12/12 13:10:13;;;;;;;9.88;5.43;;;5.60;99.90;;;;;;5043808;28;20094;-70
2020/12/12 13:12:39;;;;;;;6.82;4.68;;;5.60;99.40;;;;;;5051870;28;20119;-70